createdAt,value
2022-12-31T00:02:13.240Z,93652.50
2022-12-31T00:04:43.148Z,93651.50
2022-12-31T00:07:13.044Z,93650.47
2022-12-31T00:09:44.723Z,93647.88
2022-12-31T00:12:14.588Z,93650.47
2022-12-31T00:14:44.443Z,93652.03
2022-12-31T00:17:14.303Z,93658.78
2022-12-31T00:19:44.263Z,93658.75
2022-12-31T00:22:14.127Z,93650.81
2022-12-31T00:24:45.640Z,93663.56
2022-12-31T00:27:15.686Z,93661.72
2022-12-31T00:29:45.695Z,93669.03
2022-12-31T00:32:15.577Z,93663.00
2022-12-31T00:34:45.321Z,93663.84
2022-12-31T00:37:15.256Z,93669.72
2022-12-31T00:39:46.683Z,93674.72
2022-12-31T00:42:16.677Z,93675.34
2022-12-31T00:44:46.478Z,93681.22
2022-12-31T00:50:49.687Z,93670.88
2022-12-31T00:53:19.684Z,93675.66
2022-12-31T00:55:49.765Z,93679.13
2022-12-31T00:58:19.895Z,93674.88
2022-12-31T01:00:49.676Z,93673.91
2022-12-31T01:03:19.654Z,93674.00
2022-12-31T01:05:51.495Z,93672.31
2022-12-31T01:08:21.529Z,93676.66
2022-12-31T01:11:09.559Z,93675.84
2022-12-31T01:13:39.385Z,93682.56
2022-12-31T01:16:14.862Z,93680.78
2022-12-31T01:18:45.311Z,93672.31
2022-12-31T01:21:18.003Z,93666.13
2022-12-31T01:23:48.031Z,93670.13
2022-12-31T01:26:19.574Z,93665.19
2022-12-31T01:28:50.125Z,93667.16
2022-12-31T01:31:24.332Z,93666.38
2022-12-31T01:33:54.923Z,93671.78
2022-12-31T01:36:28.416Z,93668.31
2022-12-31T01:39:00.856Z,93658.81
2022-12-31T01:41:33.984Z,93663.28
2022-12-31T01:44:25.374Z,93661.59
2022-12-31T01:46:59.014Z,93652.88
2022-12-31T01:49:37.925Z,93657.28
2022-12-31T01:52:14.285Z,93665.25
2022-12-31T01:54:48.594Z,93654.97
2022-12-31T01:57:19.491Z,93654.91
2022-12-31T01:59:49.397Z,93663.09
2022-12-31T02:02:20.041Z,93665.06
2022-12-31T02:04:53.702Z,93654.22
2022-12-31T02:07:25.976Z,93657.63
2022-12-31T02:09:57.030Z,93658.69
2022-12-31T02:12:27.066Z,93661.25
2022-12-31T02:14:58.096Z,93657.00
2022-12-31T02:17:39.061Z,93658.63
2022-12-31T02:20:38.962Z,93655.16
2022-12-31T02:24:01.341Z,93659.34
2022-12-31T02:26:57.997Z,93665.25
2022-12-31T02:30:06.971Z,93667.94
2022-12-31T02:32:52.376Z,93671.72
2022-12-31T02:35:29.179Z,93672.84
2022-12-31T02:38:05.071Z,93675.41
2022-12-31T02:40:37.299Z,93672.72
2022-12-31T02:43:07.385Z,93675.47
2022-12-31T02:45:43.314Z,93683.09
2022-12-31T02:48:29.047Z,93680.44
2022-12-31T02:51:18.141Z,93677.97
2022-12-31T02:54:10.176Z,93681.31
2022-12-31T02:56:51.421Z,93683.00
2022-12-31T02:59:45.161Z,93687.19
2022-12-31T03:02:20.658Z,93679.66
2022-12-31T03:04:54.720Z,93681.50
2022-12-31T03:07:27.361Z,93684.06
2022-12-31T03:09:57.674Z,93682.25
2022-12-31T03:12:47.825Z,93675.16
2022-12-31T03:15:24.178Z,93682.75
2022-12-31T03:18:00.502Z,93678.59
2022-12-31T03:20:52.009Z,93677.69
2022-12-31T03:23:25.782Z,93684.50
2022-12-31T03:25:55.336Z,93679.34
2022-12-31T03:28:27.338Z,93679.16
2022-12-31T03:31:00.158Z,93671.25
2022-12-31T03:33:34.227Z,93680.69
2022-12-31T03:36:08.730Z,93686.72
2022-12-31T03:38:38.898Z,93679.78
2022-12-31T03:41:11.157Z,93685.16
2022-12-31T03:43:41.082Z,93694.13
2022-12-31T03:46:10.965Z,93700.22
2022-12-31T03:51:48.945Z,93709.75
2022-12-31T03:54:18.718Z,93702.59
2022-12-31T03:56:49.675Z,93698.19
2022-12-31T03:59:19.530Z,93693.00
2022-12-31T04:01:49.710Z,93695.56
2022-12-31T04:04:19.538Z,93693.78
2022-12-31T04:06:51.545Z,93696.16
2022-12-31T04:09:21.295Z,93692.47
2022-12-31T04:11:51.398Z,93701.66
2022-12-31T04:14:21.584Z,93696.41
2022-12-31T04:16:51.439Z,93702.38
2022-12-31T04:19:21.507Z,93698.84
2022-12-31T04:21:53.021Z,93701.53
2022-12-31T04:24:22.795Z,93709.31
2022-12-31T04:26:52.852Z,93708.59
2022-12-31T04:29:22.935Z,93708.59
2022-12-31T04:31:52.850Z,93710.28
2022-12-31T04:34:23.516Z,93701.72
2022-12-31T04:36:55.008Z,93705.19
2022-12-31T04:39:25.076Z,93710.22
2022-12-31T04:41:55.922Z,93712.69
2022-12-31T04:44:25.979Z,93709.91
2022-12-31T04:46:55.856Z,93711.47
2022-12-31T04:49:25.746Z,93714.03
2022-12-31T04:51:57.119Z,93712.25
2022-12-31T04:54:27.122Z,93712.44
2022-12-31T04:56:57.057Z,93713.22
2022-12-31T04:59:27.286Z,93714.88
2022-12-31T05:01:57.171Z,93717.41
2022-12-31T05:04:27.450Z,93720.03
2022-12-31T05:06:58.718Z,93724.25
2022-12-31T05:09:30.187Z,93719.84
2022-12-31T05:11:59.983Z,93724.94
2022-12-31T05:14:29.942Z,93723.19
2022-12-31T05:17:01.431Z,93728.22
2022-12-31T05:19:31.421Z,93736.75
2022-12-31T05:22:20.580Z,93737.53
2022-12-31T05:24:52.395Z,93748.56
2022-12-31T05:27:22.179Z,93754.03
2022-12-31T05:29:52.078Z,93765.31
2022-12-31T05:32:21.756Z,93761.06
2022-12-31T05:34:51.807Z,93763.00
2022-12-31T05:37:23.156Z,93759.75
2022-12-31T05:39:52.959Z,93761.34
2022-12-31T05:42:22.817Z,93762.97
2022-12-31T05:44:52.883Z,93766.31
2022-12-31T05:47:22.983Z,93769.09
2022-12-31T05:49:52.811Z,93771.66
2022-12-31T05:52:24.670Z,93768.28
2022-12-31T05:54:54.606Z,93769.03
2022-12-31T05:57:24.553Z,93775.63
2022-12-31T05:59:54.679Z,93767.16
2022-12-31T06:02:25.339Z,93783.53
2022-12-31T06:04:55.468Z,93788.66
2022-12-31T06:07:26.923Z,93783.69
2022-12-31T06:09:56.944Z,93792.22
2022-12-31T06:12:26.782Z,93786.16
2022-12-31T06:14:56.645Z,93793.88
2022-12-31T06:17:30.459Z,93790.44
2022-12-31T06:20:01.427Z,93797.50
2022-12-31T06:22:32.957Z,93797.47
2022-12-31T06:25:02.813Z,93794.03
2022-12-31T06:27:33.110Z,93801.06
2022-12-31T06:30:02.955Z,93793.28
2022-12-31T06:32:32.953Z,93800.94
2022-12-31T06:35:02.840Z,93797.31
2022-12-31T06:37:34.155Z,93803.34
2022-12-31T06:40:04.142Z,93799.69
2022-12-31T06:42:34.569Z,93802.03
2022-12-31T06:45:04.432Z,93805.38
2022-12-31T06:47:34.379Z,93808.66
2022-12-31T06:51:49.063Z,93823.81
2022-12-31T06:54:18.923Z,93818.50
2022-12-31T06:56:49.702Z,93814.91
2022-12-31T06:59:29.563Z,93824.06
2022-12-31T07:02:19.747Z,93820.38
2022-12-31T07:05:33.141Z,93829.53
2022-12-31T07:08:19.098Z,93826.56
2022-12-31T07:10:57.676Z,93831.16
2022-12-31T07:14:11.723Z,93823.81
2022-12-31T07:16:58.204Z,93825.06
2022-12-31T07:19:45.807Z,93826.22
2022-12-31T07:22:18.624Z,93826.47
2022-12-31T07:24:50.247Z,93828.44
2022-12-31T07:27:44.100Z,93838.09
2022-12-31T07:30:16.957Z,93830.56
2022-12-31T07:33:07.735Z,93834.25
2022-12-31T07:35:53.006Z,93830.09
2022-12-31T07:38:34.261Z,93835.50
2022-12-31T07:41:14.444Z,93835.69
2022-12-31T07:44:00.767Z,93836.09
2022-12-31T07:46:41.096Z,93841.34
2022-12-31T07:49:15.073Z,93847.47
2022-12-31T07:51:45.951Z,93850.00
2022-12-31T07:54:15.982Z,93846.88
2022-12-31T07:56:48.279Z,93844.38
2022-12-31T07:59:37.819Z,93846.22
2022-12-31T08:02:18.725Z,93844.09
2022-12-31T08:05:02.203Z,93850.13
2022-12-31T08:07:41.887Z,93849.13
2022-12-31T08:10:19.138Z,93844.25
2022-12-31T08:12:52.537Z,93845.38
2022-12-31T08:15:30.025Z,93844.78
2022-12-31T08:18:01.303Z,93842.28
2022-12-31T08:20:35.468Z,93850.34
2022-12-31T08:23:21.927Z,93847.03
2022-12-31T08:26:13.681Z,93848.19
2022-12-31T08:29:10.443Z,93848.50
2022-12-31T08:31:49.926Z,93853.41
2022-12-31T08:34:28.130Z,93843.94
2022-12-31T08:37:08.696Z,93855.53
2022-12-31T08:39:57.999Z,93848.84
2022-12-31T08:42:37.695Z,93846.72
2022-12-31T08:45:19.264Z,93854.22
2022-12-31T08:48:00.488Z,93849.59
2022-12-31T08:50:32.036Z,93845.88
2022-12-31T08:53:03.199Z,93855.06
2022-12-31T08:55:34.358Z,93853.28
2022-12-31T08:58:22.056Z,93847.81
2022-12-31T09:01:00.131Z,93848.38
2022-12-31T09:03:48.000Z,93846.97
2022-12-31T09:06:28.159Z,93848.97
2022-12-31T09:09:05.602Z,93850.75
2022-12-31T09:11:50.156Z,93852.66
2022-12-31T09:14:43.050Z,93851.84
2022-12-31T09:17:42.267Z,93854.34
2022-12-31T09:20:21.612Z,93841.06
2022-12-31T09:22:53.133Z,93839.13
2022-12-31T09:25:25.290Z,93842.75
2022-12-31T09:28:12.098Z,93843.66
2022-12-31T09:30:51.532Z,93838.47
2022-12-31T09:33:42.363Z,93837.06
2022-12-31T09:36:17.885Z,93837.38
2022-12-31T09:38:57.497Z,93833.56
2022-12-31T09:42:03.496Z,93831.59
2022-12-31T09:45:18.340Z,93829.50
2022-12-31T09:52:03.959Z,93826.25
2022-12-31T09:54:49.222Z,93821.47
2022-12-31T09:57:36.343Z,93819.16
2022-12-31T10:00:15.170Z,93806.59
2022-12-31T10:03:16.414Z,93811.63
2022-12-31T10:06:07.196Z,93820.50
2022-12-31T10:09:02.000Z,93803.31
2022-12-31T10:11:46.378Z,93806.09
2022-12-31T10:14:46.921Z,93803.59
2022-12-31T10:17:32.281Z,93798.38
2022-12-31T10:20:47.436Z,93799.88
2022-12-31T10:23:52.630Z,93794.41
2022-12-31T10:27:03.414Z,93794.03
2022-12-31T10:29:47.261Z,93789.56
2022-12-31T10:32:27.798Z,93791.16
2022-12-31T10:35:17.700Z,93792.66
2022-12-31T10:37:59.516Z,93788.47
2022-12-31T10:40:59.308Z,93779.38
2022-12-31T10:44:49.821Z,93782.81
2022-12-31T10:48:03.541Z,93780.19
2022-12-31T10:51:22.003Z,93779.91
2022-12-31T10:54:40.581Z,93779.47
2022-12-31T10:57:56.262Z,93778.16
2022-12-31T11:00:32.942Z,93774.81
2022-12-31T11:04:03.341Z,93775.53
2022-12-31T11:07:29.659Z,93769.28
2022-12-31T11:10:44.916Z,93766.50
2022-12-31T11:14:03.610Z,93760.91
2022-12-31T11:16:59.104Z,93767.50
2022-12-31T11:19:43.478Z,93759.38
2022-12-31T11:22:42.143Z,93761.09
2022-12-31T11:25:40.677Z,93760.59
2022-12-31T11:28:55.189Z,93755.56
2022-12-31T11:31:52.745Z,93756.41
2022-12-31T11:34:46.597Z,93752.03
2022-12-31T11:37:39.365Z,93760.13
2022-12-31T11:40:42.490Z,93762.84
2022-12-31T11:43:28.650Z,93767.25
2022-12-31T11:46:36.253Z,93776.69
2022-12-31T11:49:23.096Z,93770.50
2022-12-31T11:52:28.501Z,93769.56
2022-12-31T11:55:30.242Z,93768.25
2022-12-31T11:58:10.521Z,93762.28
2022-12-31T12:00:42.211Z,93766.75
2022-12-31T12:03:14.522Z,93761.81
2022-12-31T12:05:44.383Z,93768.81
2022-12-31T12:08:15.298Z,93762.75
2022-12-31T12:10:49.399Z,93763.59
2022-12-31T12:13:26.321Z,93765.28
2022-12-31T12:16:02.319Z,93773.19
2022-12-31T12:18:44.577Z,93764.81
2022-12-31T12:21:18.497Z,93771.16
2022-12-31T12:23:59.393Z,93773.09
2022-12-31T12:26:36.312Z,93764.44
2022-12-31T12:29:14.739Z,93762.66
2022-12-31T12:31:55.608Z,93766.31
2022-12-31T12:34:29.876Z,93761.25
2022-12-31T12:36:59.963Z,93762.38
2022-12-31T12:39:33.456Z,93762.53
2022-12-31T12:42:07.367Z,93763.31
2022-12-31T12:44:37.444Z,93762.38
2022-12-31T12:47:10.313Z,93767.97
2022-12-31T12:52:09.848Z,93771.75
2022-12-31T12:55:00.404Z,93775.59
2022-12-31T12:57:40.396Z,93769.81
2022-12-31T13:00:21.337Z,93774.53
2022-12-31T13:03:28.116Z,93771.19
2022-12-31T13:06:20.750Z,93776.47
2022-12-31T13:09:15.818Z,93785.34
2022-12-31T13:15:17.475Z,93793.50
2022-12-31T13:18:02.634Z,93792.84
2022-12-31T13:20:39.964Z,93797.41
2022-12-31T13:23:23.855Z,93797.66
2022-12-31T13:26:09.857Z,93796.06
2022-12-31T13:28:43.068Z,93794.47
2022-12-31T13:31:17.388Z,93808.63
2022-12-31T13:33:52.999Z,93805.25
2022-12-31T13:36:25.838Z,93813.19
2022-12-31T13:38:59.117Z,93815.69
2022-12-31T13:41:36.585Z,93819.28
2022-12-31T13:44:16.925Z,93825.81
2022-12-31T13:46:50.900Z,93832.84
2022-12-31T13:49:29.066Z,93822.53
2022-12-31T13:52:09.088Z,93835.56
2022-12-31T13:54:46.402Z,93835.56
2022-12-31T13:57:39.982Z,93837.66
2022-12-31T14:00:23.220Z,93838.97
2022-12-31T14:03:08.259Z,93841.19
2022-12-31T14:05:44.888Z,93839.97
2022-12-31T14:08:14.974Z,93851.00
2022-12-31T14:10:59.527Z,93854.00
2022-12-31T14:13:52.339Z,93856.16
2022-12-31T14:16:34.545Z,93857.25
2022-12-31T14:19:15.736Z,93862.00
2022-12-31T14:21:53.430Z,93854.78
2022-12-31T14:24:39.099Z,93857.09
2022-12-31T14:27:16.727Z,93857.56
2022-12-31T14:29:52.259Z,93850.47
2022-12-31T14:33:16.716Z,93861.47
2022-12-31T14:36:12.288Z,93870.81
2022-12-31T14:38:58.644Z,93862.41
2022-12-31T14:41:48.636Z,93870.22
2022-12-31T14:44:42.684Z,93862.88
2022-12-31T14:47:33.935Z,93867.75
2022-12-31T14:50:12.977Z,93866.47
2022-12-31T14:52:54.369Z,93870.34
2022-12-31T14:55:31.216Z,93870.03
2022-12-31T14:58:27.573Z,93873.88
2022-12-31T15:00:58.582Z,93880.56
2022-12-31T15:03:45.087Z,93872.28
2022-12-31T15:06:44.423Z,93871.84
2022-12-31T15:09:44.355Z,93876.66
2022-12-31T15:12:41.402Z,93880.97
2022-12-31T15:15:33.628Z,93884.06
2022-12-31T15:18:29.415Z,93876.78
2022-12-31T15:21:45.400Z,93880.31
2022-12-31T15:24:24.574Z,93888.84
2022-12-31T15:26:57.263Z,93890.00
2022-12-31T15:29:32.256Z,93886.09
2022-12-31T15:32:06.017Z,93888.44
2022-12-31T15:34:39.447Z,93901.91
2022-12-31T15:37:32.003Z,93894.59
2022-12-31T15:40:20.761Z,93901.69
2022-12-31T15:42:56.802Z,93895.91
2022-12-31T15:45:34.218Z,93899.75
2022-12-31T15:48:10.147Z,93898.50
2022-12-31T15:51:53.768Z,93896.47
2022-12-31T15:54:37.624Z,93897.66
2022-12-31T15:57:13.409Z,93910.06
2022-12-31T15:59:43.843Z,93896.47
2022-12-31T16:02:23.696Z,93913.09
2022-12-31T16:04:55.066Z,93914.03
2022-12-31T16:07:28.082Z,93922.00
2022-12-31T16:10:00.925Z,93919.84
2022-12-31T16:12:38.241Z,93914.81
2022-12-31T16:15:26.283Z,93919.94
2022-12-31T16:18:10.627Z,93922.72
2022-12-31T16:20:48.785Z,93929.66
2022-12-31T16:23:25.280Z,93927.47
2022-12-31T16:25:59.937Z,93923.69
2022-12-31T16:28:33.867Z,93925.81
2022-12-31T16:31:06.971Z,93925.78
2022-12-31T16:33:37.103Z,93929.38
2022-12-31T16:36:07.948Z,93931.25
2022-12-31T16:38:40.957Z,93930.59
2022-12-31T16:41:20.245Z,93930.88
2022-12-31T16:43:51.244Z,93940.38
2022-12-31T16:46:27.237Z,93936.09
2022-12-31T16:49:01.705Z,93947.34
2022-12-31T16:51:35.853Z,93944.09
2022-12-31T16:54:07.615Z,93945.19
2022-12-31T16:56:41.242Z,93941.84
2022-12-31T16:59:24.124Z,93947.28
2022-12-31T17:01:56.265Z,93943.28
2022-12-31T17:04:27.305Z,93940.03
2022-12-31T17:06:57.423Z,93948.81
2022-12-31T17:09:36.885Z,93949.81
2022-12-31T17:12:17.997Z,93945.63
2022-12-31T17:14:52.578Z,93943.91
2022-12-31T17:17:26.816Z,93944.91
2022-12-31T17:20:01.225Z,93952.72
2022-12-31T17:22:37.196Z,93958.88
2022-12-31T17:25:25.364Z,93966.84
2022-12-31T17:27:59.307Z,93969.28
2022-12-31T17:30:41.881Z,93972.38
2022-12-31T17:33:32.023Z,93972.38
2022-12-31T17:36:23.929Z,93981.22
2022-12-31T17:38:53.816Z,93977.22
2022-12-31T17:41:29.884Z,93979.09
2022-12-31T17:44:00.448Z,93974.94
2022-12-31T17:46:41.618Z,93981.09
2022-12-31T17:49:15.561Z,93977.72
2022-12-31T17:51:47.743Z,93985.47
2022-12-31T17:54:18.763Z,93979.34
2022-12-31T17:56:50.690Z,93980.06
2022-12-31T17:59:24.140Z,93984.25
2022-12-31T18:01:54.303Z,93985.22
2022-12-31T18:04:24.237Z,93987.03
2022-12-31T18:06:54.082Z,93995.78
2022-12-31T18:09:23.929Z,94003.75
2022-12-31T18:11:59.730Z,93995.34
2022-12-31T18:14:31.391Z,93994.66
2022-12-31T18:17:01.218Z,94001.59
2022-12-31T18:20:03.088Z,93993.97
2022-12-31T18:22:21.324Z,93996.63
2022-12-31T18:24:55.660Z,94000.88
2022-12-31T18:27:27.126Z,93994.09
2022-12-31T18:30:04.130Z,94000.94
2022-12-31T18:32:36.185Z,94010.28
2022-12-31T18:35:07.553Z,94004.13
2022-12-31T18:37:38.107Z,94002.31
2022-12-31T18:40:09.626Z,93999.91
2022-12-31T18:42:42.202Z,93990.81
2022-12-31T18:45:19.240Z,93997.88
2022-12-31T18:47:49.524Z,93999.75
2022-12-31T18:51:52.598Z,94006.25
2022-12-31T18:54:23.063Z,94002.66
2022-12-31T18:56:57.067Z,94008.66
2022-12-31T18:59:27.345Z,94013.03
2022-12-31T19:01:57.266Z,94009.56
2022-12-31T19:04:28.439Z,94012.91
2022-12-31T19:07:00.177Z,94003.78
2022-12-31T19:09:45.175Z,94017.81
2022-12-31T19:12:18.121Z,94017.25
2022-12-31T19:14:48.054Z,94014.78
2022-12-31T19:17:17.945Z,94011.19
2022-12-31T19:19:47.963Z,94013.59
2022-12-31T19:22:19.613Z,94015.28
2022-12-31T19:24:49.548Z,94012.75
2022-12-31T19:27:19.530Z,94014.50
2022-12-31T19:29:49.456Z,94011.25
2022-12-31T19:32:19.335Z,94018.28
2022-12-31T19:34:49.279Z,94011.56
2022-12-31T19:37:20.802Z,94017.63
2022-12-31T19:39:50.805Z,94015.91
2022-12-31T19:42:20.861Z,94010.84
2022-12-31T19:44:50.866Z,94015.13
2022-12-31T19:47:20.748Z,94018.38
2022-12-31T19:49:50.936Z,94009.72
2022-12-31T19:52:22.395Z,94011.41
2022-12-31T19:54:52.351Z,94015.03
2022-12-31T19:57:22.167Z,94005.91
2022-12-31T19:59:51.944Z,94012.03
2022-12-31T20:02:22.096Z,94016.25
2022-12-31T20:04:51.968Z,94014.47
2022-12-31T20:07:27.093Z,94027.19
2022-12-31T20:09:57.319Z,94021.19
2022-12-31T20:12:27.452Z,94021.22
2022-12-31T20:14:57.422Z,94016.00
2022-12-31T20:17:28.224Z,94021.13
2022-12-31T20:19:58.212Z,94022.13
2022-12-31T20:22:29.742Z,94020.41
2022-12-31T20:24:59.702Z,94023.81
2022-12-31T20:27:29.585Z,94022.97
2022-12-31T20:29:59.499Z,94019.56
2022-12-31T20:32:29.460Z,94022.91
2022-12-31T20:34:59.474Z,94023.72
2022-12-31T20:37:30.867Z,94026.28
2022-12-31T20:40:00.820Z,94030.75
2022-12-31T20:42:30.554Z,94030.84
2022-12-31T20:45:00.508Z,94040.16
2022-12-31T20:47:30.303Z,94035.78
2022-12-31T20:50:15.485Z,94038.41
2022-12-31T20:52:47.602Z,94037.69
2022-12-31T20:55:18.458Z,94042.97
2022-12-31T20:57:48.422Z,94042.19
2022-12-31T21:00:19.778Z,94038.88
2022-12-31T21:02:57.899Z,94042.47
2022-12-31T21:05:34.523Z,94040.06
2022-12-31T21:08:11.003Z,94035.84
2022-12-31T21:10:41.339Z,94037.56
2022-12-31T21:13:10.199Z,94040.06
2022-12-31T21:15:40.115Z,94043.41
2022-12-31T21:18:10.785Z,94046.03
2022-12-31T21:20:40.562Z,94042.66
2022-12-31T21:23:12.027Z,94051.19
2022-12-31T21:25:42.262Z,94045.19
2022-12-31T21:28:12.641Z,94051.31
2022-12-31T21:30:43.340Z,94042.91
2022-12-31T21:33:13.477Z,94047.25
2022-12-31T21:35:51.668Z,94050.66
2022-12-31T21:38:25.402Z,94047.91
2022-12-31T21:40:55.875Z,94043.47
2022-12-31T21:43:25.880Z,94046.91
2022-12-31T21:46:03.857Z,94039.34
2022-12-31T21:52:08.029Z,94054.75
2022-12-31T21:54:55.166Z,94050.63
2022-12-31T21:57:25.182Z,94058.47
2022-12-31T22:00:40.274Z,94056.03
2022-12-31T22:03:19.904Z,94053.47
2022-12-31T22:05:53.596Z,94052.41
2022-12-31T22:08:26.055Z,94047.19
2022-12-31T22:10:55.852Z,94048.97
2022-12-31T22:13:26.066Z,94047.44
2022-12-31T22:16:04.398Z,94044.97
2022-12-31T22:18:39.005Z,94044.06
2022-12-31T22:21:18.286Z,94040.59
2022-12-31T22:23:52.360Z,94040.66
2022-12-31T22:26:27.884Z,94057.91
2022-12-31T22:29:00.210Z,94040.75
2022-12-31T22:31:32.261Z,94033.97
2022-12-31T22:34:02.305Z,94045.13
2022-12-31T22:36:32.135Z,94037.34
2022-12-31T22:39:03.527Z,94044.28
2022-12-31T22:41:33.384Z,94034.94
2022-12-31T22:44:05.166Z,94042.69
2022-12-31T22:46:36.118Z,94045.22
2022-12-31T22:49:07.455Z,94037.50
2022-12-31T22:51:57.254Z,94035.88
2022-12-31T22:54:28.789Z,94026.56
2022-12-31T22:56:58.636Z,94028.34
2022-12-31T22:59:28.602Z,94035.06
2022-12-31T23:01:58.440Z,94039.38
2022-12-31T23:04:28.610Z,94035.13
2022-12-31T23:06:58.643Z,94024.72
2022-12-31T23:09:47.463Z,94031.41
2022-12-31T23:12:17.423Z,94031.47
2022-12-31T23:15:04.342Z,94033.22
2022-12-31T23:17:51.525Z,94029.03
2022-12-31T23:20:41.786Z,94024.78
2022-12-31T23:23:17.466Z,94024.78
2022-12-31T23:25:51.242Z,94026.66
2022-12-31T23:28:24.198Z,94019.75
2022-12-31T23:30:54.783Z,94025.63
2022-12-31T23:33:27.157Z,94034.13
2022-12-31T23:36:05.889Z,94023.25
2022-12-31T23:38:35.755Z,94022.53
2022-12-31T23:41:16.235Z,94019.97
2022-12-31T23:43:46.841Z,94019.03
2022-12-31T23:46:18.130Z,94023.38
2022-12-31T23:48:48.151Z,94028.59
2022-12-31T23:51:17.936Z,94032.91
2022-12-31T23:53:47.788Z,94024.34
2022-12-31T23:56:23.924Z,94031.88
2022-12-31T23:58:56.883Z,94029.19
